Time;durP1;ratioP1;P1;durP2;ratioP2;P2;SDS_P1;SDS_P2;PMS_P1;PMS_P2;Temp;Humidity;BMP_temperature;BMP_pressure;BME280_temperature;BME280_humidity;BME280_pressure;Samples;Min_cycle;Max_cycle;Signal;HPM_P1;HPM_P2
2023/09/05 00:00:12;;;;;;;2.78;1.60;;;;;;;;;;5013560;28;20489;-77
2023/09/05 00:02:38;;;;;;;6.28;1.60;;;;;;;;;;4996562;28;20041;-77
2023/09/05 00:05:07;;;;;;;2.33;1.92;;;;;;;;;;5012221;28;20101;-77
2023/09/05 00:07:35;;;;;;;2.10;1.80;;;;;;;;;;5013710;28;20030;-76
2023/09/05 00:10:05;;;;;;;2.33;1.63;;;;;;;;;;5012313;28;20461;-77
2023/09/05 00:12:31;;;;;;;2.10;1.85;;;;;;;;;;4992727;28;20117;-77
2023/09/05 00:14:57;;;;;;;2.53;1.88;;;;;;;;;;4976388;28;20185;-77
2023/09/05 00:17:22;;;;;;;1.73;1.60;;;;;;;;;;4993750;28;20117;-77
2023/09/05 00:19:49;;;;;;;2.13;1.70;;;;;;;;;;4992457;28;20084;-77
2023/09/05 00:22:14;;;;;;;2.40;1.80;;;;;;;;;;4993701;28;20138;-77
2023/09/05 00:24:41;;;;;;;2.88;1.70;;;;;;;;;;4994008;28;20113;-77
2023/09/05 00:27:09;;;;;;;3.05;1.67;;;;;;;;;;4993023;28;20050;-77
2023/09/05 00:29:35;;;;;;;3.10;1.80;;;;;;;;;;4976559;28;20481;-77
2023/09/05 00:32:01;;;;;;;1.65;1.55;;;;;;;;;;4992374;28;20042;-77
2023/09/05 00:34:28;;;;;;;3.35;1.73;;;;;;;;;;4992701;28;20037;-77
2023/09/05 00:36:53;;;;;;;2.45;1.73;;;;;;;;;;4993010;28;20355;-77
2023/09/05 00:39:19;;;;;;;2.40;1.70;;;;;;;;;;4976364;28;20038;-77
2023/09/05 00:41:45;;;;;;;1.70;1.60;;;;;;;;;;4976258;28;20041;-77
2023/09/05 00:44:13;;;;;;;1.60;1.50;;;;;;;;;;4992399;28;20588;-77
2023/09/05 00:46:42;;;;;;;1.88;1.67;;;;;;;;;;4992373;28;20030;-77
2023/09/05 00:49:10;;;;;;;2.50;1.80;;;;;;;;;;4992843;28;20117;-77
2023/09/05 00:51:36;;;;;;;1.77;1.60;;;;;;;;;;4992235;28;20048;-77
2023/09/05 00:54:03;;;;;;;2.58;1.90;;;;;;;;;;4976092;28;20081;-77
2023/09/05 00:56:29;;;;;;;2.70;1.80;;;;;;;;;;4992588;28;20034;-77
2023/09/05 00:58:55;;;;;;;1.67;1.58;;;;;;;;;;4992495;28;20210;-78
2023/09/05 01:01:20;;;;;;;1.67;1.40;;;;;;;;;;4975983;28;20026;-77
2023/09/05 01:03:46;;;;;;;1.83;1.60;;;;;;;;;;4993421;28;20096;-77
2023/09/05 01:06:22;;;;;;;1.42;1.33;;;;;;;;;;4992536;28;20065;-77
2023/09/05 01:08:56;;;;;;;1.75;1.63;;;;;;;;;;4992104;28;20065;-77
2023/09/05 01:11:21;;;;;;;1.92;1.60;;;;;;;;;;4992434;28;20088;-77
2023/09/05 01:13:47;;;;;;;2.25;2.05;;;;;;;;;;4975809;28;20022;-77
2023/09/05 01:16:12;;;;;;;3.72;1.50;;;;;;;;;;4993240;28;20041;-77
2023/09/05 01:18:40;;;;;;;1.73;1.60;;;;;;;;;;4977895;28;20030;-77
2023/09/05 01:21:24;;;;;;;2.15;1.80;;;;;;;;;;4997063;28;20134;-77
2023/09/05 01:23:57;;;;;;;1.50;1.40;;;;;;;;;;4979055;28;20564;-77
2023/09/05 01:26:23;;;;;;;1.70;1.60;;;;;;;;;;4995834;28;20470;-77
2023/09/05 01:28:49;;;;;;;2.42;1.80;;;;;;;;;;4979178;28;20042;-77
2023/09/05 01:31:15;;;;;;;1.98;1.77;;;;;;;;;;4995355;28;20031;-77
2023/09/05 01:33:41;;;;;;;1.95;1.75;;;;;;;;;;4995564;28;20120;-77
2023/09/05 01:36:07;;;;;;;1.80;1.50;;;;;;;;;;4979045;28;20077;-77
2023/09/05 01:38:33;;;;;;;2.00;1.63;;;;;;;;;;4996607;28;20032;-77
2023/09/05 01:40:58;;;;;;;2.10;1.67;;;;;;;;;;4995067;28;20109;-77
2023/09/05 01:43:24;;;;;;;1.70;1.60;;;;;;;;;;4995381;28;20058;-77
2023/09/05 01:45:49;;;;;;;3.35;1.77;;;;;;;;;;4995809;28;20081;-77
2023/09/05 01:48:14;;;;;;;1.60;1.50;;;;;;;;;;4996513;28;20545;-77
2023/09/05 01:50:40;;;;;;;1.77;1.65;;;;;;;;;;4995328;28;20041;-77
2023/09/05 01:53:05;;;;;;;1.65;1.55;;;;;;;;;;4994935;28;20042;-77
2023/09/05 01:55:31;;;;;;;2.03;1.83;;;;;;;;;;4978696;28;20038;-77
2023/09/05 01:57:56;;;;;;;2.00;1.75;;;;;;;;;;4979035;28;20109;-77
2023/09/05 02:00:21;;;;;;;1.70;1.60;;;;;;;;;;4978672;28;20041;-77
2023/09/05 02:02:47;;;;;;;5.63;1.70;;;;;;;;;;4995141;28;20500;-77
2023/09/05 02:05:12;;;;;;;2.42;1.70;;;;;;;;;;4994705;28;20026;-77
2023/09/05 02:07:38;;;;;;;1.63;1.52;;;;;;;;;;4995281;28;20084;-77
2023/09/05 02:10:06;;;;;;;2.95;2.00;;;;;;;;;;4994706;28;20030;-77
2023/09/05 02:12:32;;;;;;;2.42;1.70;;;;;;;;;;4995968;28;20058;-77
2023/09/05 02:15:00;;;;;;;1.95;1.67;;;;;;;;;;4996221;28;20034;-77
2023/09/05 02:17:30;;;;;;;3.45;1.73;;;;;;;;;;4994715;28;20516;-78
2023/09/05 02:19:56;;;;;;;1.98;1.75;;;;;;;;;;4994764;28;20033;-77
2023/09/05 02:22:21;;;;;;;1.73;1.63;;;;;;;;;;4978299;28;20023;-77
2023/09/05 02:24:47;;;;;;;7.63;2.15;;;;;;;;;;4994283;28;20030;-77
2023/09/05 02:27:12;;;;;;;2.28;1.85;;;;;;;;;;4994565;28;20039;-77
2023/09/05 02:29:38;;;;;;;1.95;1.85;;;;;;;;;;4977597;28;20027;-77
2023/09/05 02:32:04;;;;;;;1.90;1.70;;;;;;;;;;4994232;28;20034;-77
2023/09/05 02:34:29;;;;;;;2.38;1.80;;;;;;;;;;4994044;28;20034;-77
2023/09/05 02:36:55;;;;;;;2.45;1.80;;;;;;;;;;4994178;28;20136;-77
2023/09/05 02:39:20;;;;;;;2.05;1.88;;;;;;;;;;4993935;28;20501;-77
2023/09/05 02:41:46;;;;;;;1.75;1.65;;;;;;;;;;4995282;28;20129;-78
2023/09/05 02:44:11;;;;;;;1.98;1.73;;;;;;;;;;4995503;28;20022;-77
2023/09/05 02:46:37;;;;;;;2.75;1.85;;;;;;;;;;4995433;28;20030;-77
2023/09/05 02:49:02;;;;;;;2.13;1.60;;;;;;;;;;4978035;28;20030;-77
2023/09/05 02:51:27;;;;;;;2.63;1.80;;;;;;;;;;4993774;28;20046;-77
2023/09/05 02:53:56;;;;;;;3.83;1.60;;;;;;;;;;4995041;28;20497;-77
2023/09/05 02:56:22;;;;;;;2.78;1.67;;;;;;;;;;4995017;28;20034;-77
2023/09/05 02:58:48;;;;;;;3.25;1.70;;;;;;;;;;4993665;28;20044;-77
2023/09/05 03:01:14;;;;;;;3.42;1.92;;;;;;;;;;4994023;28;20031;-77
2023/09/05 03:03:40;;;;;;;1.83;1.70;;;;;;;;;;4993685;28;20030;-77
2023/09/05 03:06:13;;;;;;;3.28;1.58;;;;;;;;;;4977376;28;20039;-77
2023/09/05 03:08:41;;;;;;;4.25;1.90;;;;;;;;;;4993503;28;20056;-77
2023/09/05 03:11:07;;;;;;;2.13;1.85;;;;;;;;;;4994689;28;20038;-77
2023/09/05 03:13:32;;;;;;;1.60;1.50;;;;;;;;;;4993401;28;20030;-77
2023/09/05 03:15:58;;;;;;;1.70;1.60;;;;;;;;;;4977424;28;20030;-77
2023/09/05 03:18:25;;;;;;;1.77;1.67;;;;;;;;;;4993282;28;20490;-77
2023/09/05 03:20:51;;;;;;;2.05;1.63;;;;;;;;;;4993296;28;20072;-77
2023/09/05 03:23:16;;;;;;;2.17;1.50;;;;;;;;;;4976743;28;20050;-77
2023/09/05 03:25:42;;;;;;;2.35;1.60;;;;;;;;;;4977311;28;20034;-77
2023/09/05 03:28:11;;;;;;;2.13;1.60;;;;;;;;;;4994334;28;20036;-78
2023/09/05 03:30:37;;;;;;;1.98;1.60;;;;;;;;;;4993254;28;20076;-77
2023/09/05 03:33:02;;;;;;;2.20;1.80;;;;;;;;;;4960941;28;20493;-77
2023/09/05 03:35:28;;;;;;;5.97;2.00;;;;;;;;;;4993139;28;20053;-77
2023/09/05 03:37:53;;;;;;;1.77;1.55;;;;;;;;;;4992932;28;20034;-77
2023/09/05 03:40:18;;;;;;;3.08;1.73;;;;;;;;;;4976291;28;20041;-77
2023/09/05 03:42:44;;;;;;;2.67;1.90;;;;;;;;;;4960542;28;20474;-77
2023/09/05 03:45:09;;;;;;;2.00;1.80;;;;;;;;;;4994334;28;20134;-77
2023/09/05 03:47:35;;;;;;;2.22;1.85;;;;;;;;;;4992873;28;20034;-77
2023/09/05 03:50:00;;;;;;;2.65;1.85;;;;;;;;;;4994035;28;20037;-77
2023/09/05 03:52:25;;;;;;;1.77;1.67;;;;;;;;;;4976825;28;20034;-77
2023/09/05 03:54:51;;;;;;;3.42;1.70;;;;;;;;;;4992674;28;20057;-77
2023/09/05 03:57:16;;;;;;;2.35;1.88;;;;;;;;;;4993989;28;20034;-78
2023/09/05 03:59:42;;;;;;;1.50;1.40;;;;;;;;;;4994189;28;20080;-78
2023/09/05 04:02:07;;;;;;;2.33;1.92;;;;;;;;;;4992728;28;20495;-77
2023/09/05 04:04:32;;;;;;;2.38;1.85;;;;;;;;;;4992838;28;20034;-79
2023/09/05 04:06:58;;;;;;;3.22;2.17;;;;;;;;;;4992621;28;20121;-79
2023/09/05 04:09:23;;;;;;;3.20;2.00;;;;;;;;;;4993121;28;20104;-79
2023/09/05 04:11:49;;;;;;;3.83;2.20;;;;;;;;;;4992648;28;20129;-79
2023/09/05 04:14:14;;;;;;;5.60;2.05;;;;;;;;;;4976889;28;20035;-78
2023/09/05 04:16:40;;;;;;;3.05;1.92;;;;;;;;;;4992674;28;20026;-78
2023/09/05 04:19:06;;;;;;;3.45;2.00;;;;;;;;;;4992711;28;20030;-78
2023/09/05 04:21:31;;;;;;;6.03;2.28;;;;;;;;;;4976515;28;20482;-78
2023/09/05 04:23:56;;;;;;;4.13;2.70;;;;;;;;;;4992575;28;20042;-78
2023/09/05 04:26:22;;;;;;;6.22;2.70;;;;;;;;;;4976405;28;20034;-78
2023/09/05 04:28:47;;;;;;;10.52;2.58;;;;;;;;;;4975569;28;20475;-77
2023/09/05 04:31:18;;;;;;;4.32;2.63;;;;;;;;;;4994377;28;20034;-79
2023/09/05 04:33:43;;;;;;;7.55;3.20;;;;;;;;;;4992825;28;20033;-77
2023/09/05 04:36:09;;;;;;;7.25;3.28;;;;;;;;;;4994021;28;20113;-77
2023/09/05 04:38:35;;;;;;;7.82;3.30;;;;;;;;;;4976127;28;20031;-77
2023/09/05 04:41:04;;;;;;;7.03;2.85;;;;;;;;;;4992307;28;20500;-78
2023/09/05 04:43:30;;;;;;;5.80;2.75;;;;;;;;;;4976211;28;20064;-77
2023/09/05 04:45:56;;;;;;;5.50;2.50;;;;;;;;;;4993938;28;20389;-77
2023/09/05 04:48:22;;;;;;;5.93;2.75;;;;;;;;;;4993684;28;20034;-77
2023/09/05 04:50:47;;;;;;;4.90;2.90;;;;;;;;;;4976310;28;20026;-78
2023/09/05 04:53:13;;;;;;;5.03;2.58;;;;;;;;;;4979132;28;20050;-78
2023/09/05 04:55:44;;;;;;;15.52;4.30;;;;;;;;;;4996371;28;20088;-78
2023/09/05 04:58:12;;;;;;;19.98;6.13;;;;;;;;;;4998080;28;20453;-77
2023/09/05 05:00:38;;;;;;;20.27;5.45;;;;;;;;;;4996294;28;20026;-78
2023/09/05 05:03:04;;;;;;;17.50;5.35;;;;;;;;;;4995817;28;20026;-77
2023/09/05 05:05:29;;;;;;;17.33;4.68;;;;;;;;;;4997233;28;20109;-77
2023/09/05 05:07:55;;;;;;;15.32;5.60;;;;;;;;;;4995936;28;20034;-77
2023/09/05 05:10:20;;;;;;;17.45;5.47;;;;;;;;;;4980106;28;20373;-77
2023/09/05 05:12:46;;;;;;;18.10;5.63;;;;;;;;;;4997530;28;20034;-77
2023/09/05 05:15:11;;;;;;;12.73;5.13;;;;;;;;;;4997394;28;20034;-77
2023/09/05 05:17:37;;;;;;;13.73;4.60;;;;;;;;;;4999227;28;20031;-76
2023/09/05 05:20:05;;;;;;;13.63;5.32;;;;;;;;;;4997747;28;20046;-77
2023/09/05 05:22:30;;;;;;;12.75;5.03;;;;;;;;;;4998994;28;20110;-76
2023/09/05 05:24:56;;;;;;;14.10;4.85;;;;;;;;;;4997372;28;20140;-77
2023/09/05 05:27:21;;;;;;;11.00;4.47;;;;;;;;;;4998154;28;20030;-77
2023/09/05 05:29:47;;;;;;;12.95;4.32;;;;;;;;;;4995272;28;20034;-77
2023/09/05 05:32:12;;;;;;;11.55;4.57;;;;;;;;;;4996546;28;20037;-78
2023/09/05 05:34:38;;;;;;;6.65;3.40;;;;;;;;;;4978897;28;20448;-77
2023/09/05 05:37:03;;;;;;;13.93;3.83;;;;;;;;;;4979213;28;20039;-77
2023/09/05 05:39:29;;;;;;;13.38;4.40;;;;;;;;;;4996352;28;20031;-77
2023/09/05 05:41:54;;;;;;;10.63;4.55;;;;;;;;;;4996460;28;20104;-77
2023/09/05 05:44:19;;;;;;;12.85;4.10;;;;;;;;;;4996423;28;20048;-77
2023/09/05 05:46:45;;;;;;;9.85;3.58;;;;;;;;;;4995164;28;20038;-78
2023/09/05 05:49:10;;;;;;;13.10;4.13;;;;;;;;;;4996859;28;20450;-78
2023/09/05 05:51:37;;;;;;;8.38;3.95;;;;;;;;;;4995084;28;20041;-77
2023/09/05 05:54:02;;;;;;;9.60;4.18;;;;;;;;;;4995501;28;20034;-77
2023/09/05 05:56:28;;;;;;;8.13;3.42;;;;;;;;;;4978909;28;20393;-78
2023/09/05 05:58:53;;;;;;;5.72;3.03;;;;;;;;;;4978624;28;20084;-77
2023/09/05 06:01:19;;;;;;;7.00;3.47;;;;;;;;;;4995242;28;20026;-77
2023/09/05 06:03:44;;;;;;;7.78;3.55;;;;;;;;;;4995509;28;20029;-77
2023/09/05 06:06:09;;;;;;;8.65;3.50;;;;;;;;;;4978671;28;20034;-77
2023/09/05 06:08:35;;;;;;;8.30;3.40;;;;;;;;;;4995816;28;20034;-77
2023/09/05 06:11:00;;;;;;;5.78;2.97;;;;;;;;;;4994712;28;20031;-77
2023/09/05 06:13:26;;;;;;;6.13;2.70;;;;;;;;;;4996365;28;20112;-77
2023/09/05 06:15:52;;;;;;;5.95;2.92;;;;;;;;;;4995998;28;20030;-77
2023/09/05 06:18:18;;;;;;;4.72;2.50;;;;;;;;;;4994561;28;20034;-77
2023/09/05 06:20:43;;;;;;;6.57;2.50;;;;;;;;;;4978268;28;20038;-77
2023/09/05 06:23:09;;;;;;;5.07;2.30;;;;;;;;;;4995941;28;20051;-78
2023/09/05 06:25:35;;;;;;;3.00;2.35;;;;;;;;;;4994421;28;20045;-77
2023/09/05 06:28:00;;;;;;;3.33;2.10;;;;;;;;;;4995623;28;20041;-77
2023/09/05 06:30:26;;;;;;;6.93;2.38;;;;;;;;;;4978148;28;20121;-77
2023/09/05 06:32:51;;;;;;;4.25;2.25;;;;;;;;;;4994291;28;20064;-77
2023/09/05 06:35:17;;;;;;;4.25;2.70;;;;;;;;;;4995668;28;20038;-77
2023/09/05 06:37:42;;;;;;;6.57;2.50;;;;;;;;;;4994209;28;20084;-77
2023/09/05 06:40:12;;;;;;;4.15;2.10;;;;;;;;;;4994399;28;20089;-77
2023/09/05 06:42:41;;;;;;;2.72;2.10;;;;;;;;;;4994271;28;20485;-77
2023/09/05 06:45:07;;;;;;;2.78;2.00;;;;;;;;;;4994092;28;20026;-77
2023/09/05 06:47:32;;;;;;;4.03;2.25;;;;;;;;;;4977965;28;20085;-77
2023/09/05 06:49:59;;;;;;;3.15;2.10;;;;;;;;;;4977742;28;20037;-77
2023/09/05 06:52:24;;;;;;;3.65;1.92;;;;;;;;;;4994004;28;20056;-77
2023/09/05 06:54:50;;;;;;;2.55;1.85;;;;;;;;;;4994230;28;20030;-78
2023/09/05 06:57:16;;;;;;;3.63;2.20;;;;;;;;;;4994096;28;20488;-77
2023/09/05 06:59:42;;;;;;;2.17;1.60;;;;;;;;;;4993818;28;20046;-77
2023/09/05 07:02:07;;;;;;;3.22;1.50;;;;;;;;;;4993649;28;20030;-76
2023/09/05 07:04:36;;;;;;;2.63;1.95;;;;;;;;;;4993781;28;20022;-77
2023/09/05 07:07:03;;;;;;;2.70;1.80;;;;;;;;;;4994786;28;20547;-77
2023/09/05 07:09:29;;;;;;;9.15;2.05;;;;;;;;;;4993976;28;20450;-77
2023/09/05 07:11:54;;;;;;;3.85;2.05;;;;;;;;;;4977318;28;20037;-77
2023/09/05 07:14:19;;;;;;;2.83;1.60;;;;;;;;;;4993734;28;20030;-77
2023/09/05 07:16:45;;;;;;;3.00;1.75;;;;;;;;;;4994741;28;20038;-77
2023/09/05 07:19:10;;;;;;;2.13;1.60;;;;;;;;;;4994709;28;20375;-77
2023/09/05 07:21:40;;;;;;;2.00;1.48;;;;;;;;;;4993663;28;20073;-77
2023/09/05 07:24:10;;;;;;;2.30;1.85;;;;;;;;;;4993285;28;20058;-77
2023/09/05 07:26:36;;;;;;;1.80;1.67;;;;;;;;;;4995139;28;20129;-77
2023/09/05 07:29:02;;;;;;;2.28;1.73;;;;;;;;;;4993378;28;20101;-77
2023/09/05 07:31:31;;;;;;;2.15;1.80;;;;;;;;;;4993585;28;20034;-77
2023/09/05 07:33:57;;;;;;;1.77;1.42;;;;;;;;;;4993636;28;20034;-77
2023/09/05 07:36:23;;;;;;;3.45;1.70;;;;;;;;;;4976980;28;20030;-77
2023/09/05 07:38:48;;;;;;;2.13;1.55;;;;;;;;;;4993381;28;20084;-77
2023/09/05 07:41:13;;;;;;;5.25;1.70;;;;;;;;;;4994126;28;20089;-77
2023/09/05 07:43:39;;;;;;;1.88;1.52;;;;;;;;;;4976892;28;20477;-77
2023/09/05 07:46:04;;;;;;;1.73;1.40;;;;;;;;;;4960760;28;20027;-77
2023/09/05 07:48:29;;;;;;;2.20;1.65;;;;;;;;;;4994526;28;20077;-77
2023/09/05 07:51:03;;;;;;;2.05;1.40;;;;;;;;;;4976799;28;20111;-77
2023/09/05 07:53:30;;;;;;;1.95;1.58;;;;;;;;;;4994367;28;20030;-77
2023/09/05 07:55:55;;;;;;;8.80;1.60;;;;;;;;;;4994451;28;20441;-77
2023/09/05 07:58:20;;;;;;;2.25;1.60;;;;;;;;;;4993148;28;20034;-77
2023/09/05 08:00:47;;;;;;;3.17;1.42;;;;;;;;;;4994308;28;20030;-77
2023/09/05 08:03:13;;;;;;;2.60;1.67;;;;;;;;;;4994459;28;20038;-77
2023/09/05 08:05:39;;;;;;;2.17;1.58;;;;;;;;;;4992800;28;20025;-77
2023/09/05 08:08:04;;;;;;;1.60;1.50;;;;;;;;;;4993039;28;20434;-77
2023/09/05 08:10:30;;;;;;;1.88;1.48;;;;;;;;;;4992792;28;20466;-77
2023/09/05 08:12:56;;;;;;;2.13;1.55;;;;;;;;;;4994169;28;20512;-77
2023/09/05 08:15:21;;;;;;;2.22;1.40;;;;;;;;;;4993037;28;20477;-77
2023/09/05 08:17:47;;;;;;;3.15;1.52;;;;;;;;;;4993894;28;20027;-77
2023/09/05 08:20:13;;;;;;;5.90;1.63;;;;;;;;;;4993044;28;20026;-77
2023/09/05 08:22:39;;;;;;;2.10;1.58;;;;;;;;;;4993696;28;20501;-77
2023/09/05 08:25:09;;;;;;;1.75;1.40;;;;;;;;;;4993799;28;20046;-77
2023/09/05 08:27:35;;;;;;;1.73;1.60;;;;;;;;;;4996199;28;20042;-77
2023/09/05 08:30:00;;;;;;;2.28;1.92;;;;;;;;;;4996568;28;20481;-77
2023/09/05 08:32:25;;;;;;;1.95;1.63;;;;;;;;;;4996928;28;20089;-77
2023/09/05 08:34:51;;;;;;;1.60;1.35;;;;;;;;;;4997918;28;20342;-77
2023/09/05 08:37:16;;;;;;;1.92;1.50;;;;;;;;;;4997993;28;20045;-77
2023/09/05 08:39:42;;;;;;;2.78;1.40;;;;;;;;;;4996827;28;20067;-77
2023/09/05 08:42:08;;;;;;;1.70;1.20;;;;;;;;;;4997660;28;20037;-77
2023/09/05 08:44:40;;;;;;;2.92;1.60;;;;;;;;;;4996392;28;20077;-77
2023/09/05 08:47:06;;;;;;;3.92;1.40;;;;;;;;;;4996537;28;20030;-77
2023/09/05 08:49:31;;;;;;;1.63;1.50;;;;;;;;;;4997804;28;20515;-78
2023/09/05 08:52:02;;;;;;;1.40;1.30;;;;;;;;;;4997462;28;20041;-77
2023/09/05 08:54:27;;;;;;;1.65;1.35;;;;;;;;;;4996106;28;20049;-77
2023/09/05 08:56:53;;;;;;;1.50;1.40;;;;;;;;;;4996526;28;20473;-77
2023/09/05 08:59:18;;;;;;;1.45;1.35;;;;;;;;;;4996391;28;20076;-77
2023/09/05 09:01:44;;;;;;;1.58;1.48;;;;;;;;;;4996311;28;20382;-77
2023/09/05 09:04:09;;;;;;;1.73;1.40;;;;;;;;;;4996209;28;20026;-77
2023/09/05 09:06:35;;;;;;;2.00;1.60;;;;;;;;;;4997137;28;20054;-77
2023/09/05 09:09:00;;;;;;;2.75;1.67;;;;;;;;;;4980047;28;20117;-77
2023/09/05 09:11:25;;;;;;;1.40;1.30;;;;;;;;;;4995848;28;20380;-77
2023/09/05 09:13:58;;;;;;;1.60;1.50;;;;;;;;;;4995962;28;20077;-77
2023/09/05 09:16:23;;;;;;;1.63;1.40;;;;;;;;;;4995876;28;20049;-77
2023/09/05 09:18:49;;;;;;;2.05;1.50;;;;;;;;;;4995768;28;20058;-77
2023/09/05 09:21:18;;;;;;;1.48;1.38;;;;;;;;;;4996784;28;20026;-77
2023/09/05 09:23:44;;;;;;;1.38;1.27;;;;;;;;;;4995559;28;20085;-77
2023/09/05 09:26:10;;;;;;;1.52;1.40;;;;;;;;;;4996258;28;20113;-77
2023/09/05 09:28:37;;;;;;;2.30;1.30;;;;;;;;;;4996963;28;20109;-77
2023/09/05 09:31:05;;;;;;;1.42;1.20;;;;;;;;;;4995580;28;20544;-77
2023/09/05 09:33:32;;;;;;;2.78;1.38;;;;;;;;;;4979300;28;20030;-77
2023/09/05 09:36:00;;;;;;;1.52;1.38;;;;;;;;;;4995808;28;20030;-77
2023/09/05 09:38:26;;;;;;;1.45;1.35;;;;;;;;;;4995718;28;20047;-77
2023/09/05 09:40:52;;;;;;;1.40;1.30;;;;;;;;;;4978917;28;20042;-77
2023/09/05 09:43:17;;;;;;;2.08;1.33;;;;;;;;;;4995344;28;20156;-77
2023/09/05 09:45:43;;;;;;;3.78;1.98;;;;;;;;;;4995195;28;20026;-77
2023/09/05 09:48:09;;;;;;;2.72;1.55;;;;;;;;;;4995706;28;20038;-77
2023/09/05 09:50:36;;;;;;;7.30;2.05;;;;;;;;;;4995790;28;20425;-77
2023/09/05 09:53:02;;;;;;;1.90;1.55;;;;;;;;;;4995118;28;20109;-77
2023/09/05 09:55:28;;;;;;;3.55;2.05;;;;;;;;;;4995637;28;20561;-77
2023/09/05 09:57:57;;;;;;;2.67;1.80;;;;;;;;;;4995345;28;20039;-77
2023/09/05 10:00:23;;;;;;;2.17;1.60;;;;;;;;;;4995281;28;20426;-77
2023/09/05 10:02:49;;;;;;;3.10;1.65;;;;;;;;;;4996178;28;20022;-77
2023/09/05 10:05:19;;;;;;;2.53;1.67;;;;;;;;;;4994912;28;20054;-77
2023/09/05 10:07:46;;;;;;;1.92;1.50;;;;;;;;;;4994822;28;20061;-77
2023/09/05 10:10:15;;;;;;;2.25;1.70;;;;;;;;;;4996769;28;20421;-77
2023/09/05 10:12:43;;;;;;;2.08;1.60;;;;;;;;;;4994822;28;20041;-77
2023/09/05 10:15:11;;;;;;;1.98;1.58;;;;;;;;;;4994752;28;20058;-77
2023/09/05 10:17:37;;;;;;;2.47;1.67;;;;;;;;;;4994755;28;20552;-77
2023/09/05 10:20:04;;;;;;;2.38;1.60;;;;;;;;;;4994694;28;20474;-77
2023/09/05 10:22:32;;;;;;;1.70;1.48;;;;;;;;;;4994729;28;20060;-77
2023/09/05 10:25:00;;;;;;;1.85;1.40;;;;;;;;;;4994477;28;20038;-77
2023/09/05 10:27:25;;;;;;;2.90;1.80;;;;;;;;;;4995955;28;20065;-77
2023/09/05 10:29:51;;;;;;;1.63;1.42;;;;;;;;;;4994746;28;20027;-77
2023/09/05 10:32:19;;;;;;;2.33;1.35;;;;;;;;;;4994484;28;20034;-77
2023/09/05 10:34:47;;;;;;;1.58;1.40;;;;;;;;;;4995483;28;20026;-78
2023/09/05 10:37:26;;;;;;;3.45;1.50;;;;;;;;;;4996087;28;20106;-77
2023/09/05 10:39:57;;;;;;;1.60;1.50;;;;;;;;;;4994459;28;20088;-77
2023/09/05 10:42:31;;;;;;;2.45;1.50;;;;;;;;;;4978516;28;20022;-77
2023/09/05 10:44:59;;;;;;;1.60;1.48;;;;;;;;;;4994108;28;20517;-77
2023/09/05 10:47:26;;;;;;;1.63;1.42;;;;;;;;;;4994092;28;20398;-77
2023/09/05 10:50:15;;;;;;;2.15;1.33;;;;;;;;;;4994036;28;20540;-77
2023/09/05 10:52:40;;;;;;;3.75;1.55;;;;;;;;;;4978059;28;20106;-77
2023/09/05 10:55:25;;;;;;;3.15;1.52;;;;;;;;;;4993993;28;20038;-77
2023/09/05 10:57:51;;;;;;;3.20;1.88;;;;;;;;;;4993409;28;20034;-78
2023/09/05 11:00:20;;;;;;;1.70;1.40;;;;;;;;;;4993264;28;20038;-77
2023/09/05 11:02:47;;;;;;;1.50;1.40;;;;;;;;;;4994423;28;20053;-77
2023/09/05 11:05:18;;;;;;;2.08;1.58;;;;;;;;;;4976807;28;20034;-77
2023/09/05 11:07:44;;;;;;;3.45;1.50;;;;;;;;;;4993297;28;20041;-77
2023/09/05 11:10:30;;;;;;;2.60;1.50;;;;;;;;;;4993226;28;20089;-77
2023/09/05 11:12:56;;;;;;;3.45;1.50;;;;;;;;;;4993719;28;20096;-78
2023/09/05 11:15:31;;;;;;;2.45;1.70;;;;;;;;;;4993801;28;20030;-77
2023/09/05 11:18:05;;;;;;;2.20;1.42;;;;;;;;;;4995369;28;20053;-77
2023/09/05 11:20:46;;;;;;;2.25;1.40;;;;;;;;;;4977351;28;20024;-77
2023/09/05 11:23:16;;;;;;;3.78;1.90;;;;;;;;;;4994441;28;20030;-77
2023/09/05 11:25:49;;;;;;;2.00;1.50;;;;;;;;;;4993408;28;20125;-77
2023/09/05 11:28:15;;;;;;;3.22;1.65;;;;;;;;;;4994807;28;20042;-77
2023/09/05 11:30:43;;;;;;;1.80;1.20;;;;;;;;;;4994541;28;20493;-77
2023/09/05 11:33:14;;;;;;;1.45;1.20;;;;;;;;;;4994832;28;20034;-77
2023/09/05 11:35:43;;;;;;;1.50;1.40;;;;;;;;;;4994570;28;20441;-77
2023/09/05 11:38:09;;;;;;;1.63;1.30;;;;;;;;;;4993465;28;20465;-77
2023/09/05 11:40:35;;;;;;;1.98;1.70;;;;;;;;;;4993440;28;20070;-77
2023/09/05 11:43:11;;;;;;;2.47;1.70;;;;;;;;;;4977146;28;20054;-77
2023/09/05 11:45:37;;;;;;;3.47;1.60;;;;;;;;;;4993436;28;20026;-77
2023/09/05 11:48:11;;;;;;;1.70;1.50;;;;;;;;;;4994642;28;20100;-77
2023/09/05 11:50:39;;;;;;;;;;;;;;;;;;4993534;28;20050;-77
2023/09/05 11:53:05;;;;;;;1.33;1.17;;;;;;;;;;4977052;28;19910;-77
2023/09/05 11:55:31;;;;;;;2.47;1.42;;;;;;;;;;4993013;28;20429;-77
2023/09/05 11:57:58;;;;;;;1.85;1.40;;;;;;;;;;4976860;28;20081;-77
2023/09/05 12:00:24;;;;;;;1.80;1.42;;;;;;;;;;4994220;28;20022;-77
2023/09/05 12:02:55;;;;;;;1.52;1.42;;;;;;;;;;4992893;28;20072;-77
2023/09/05 12:05:21;;;;;;;1.48;1.38;;;;;;;;;;4992877;28;20075;-77
2023/09/05 12:07:50;;;;;;;2.55;1.50;;;;;;;;;;4992615;28;20026;-77
2023/09/05 12:10:16;;;;;;;1.83;1.30;;;;;;;;;;4993525;28;20057;-77
2023/09/05 12:13:04;;;;;;;1.30;1.20;;;;;;;;;;4994287;28;20473;-77
2023/09/05 12:15:33;;;;;;;1.65;1.40;;;;;;;;;;4993881;28;20030;-77
2023/09/05 12:18:03;;;;;;;1.50;1.40;;;;;;;;;;4993128;28;20034;-77
2023/09/05 12:20:29;;;;;;;1.73;1.30;;;;;;;;;;4976712;28;20030;-77
2023/09/05 12:22:55;;;;;;;1.88;1.30;;;;;;;;;;4993943;28;20030;-78
2023/09/05 12:25:24;;;;;;;1.30;1.20;;;;;;;;;;4993837;28;20104;-77
2023/09/05 12:27:51;;;;;;;1.45;1.33;;;;;;;;;;4977072;28;20030;-77
2023/09/05 12:30:30;;;;;;;1.60;1.50;;;;;;;;;;4992654;28;20030;-77
2023/09/05 12:32:58;;;;;;;5.72;1.50;;;;;;;;;;4993985;28;20489;-77
2023/09/05 12:35:25;;;;;;;1.35;1.25;;;;;;;;;;4992857;28;20101;-77
2023/09/05 12:38:00;;;;;;;1.20;1.10;;;;;;;;;;4992604;28;20027;-77
2023/09/05 12:40:27;;;;;;;1.40;1.30;;;;;;;;;;4977842;28;20041;-77
2023/09/05 12:42:52;;;;;;;1.20;1.10;;;;;;;;;;4992845;28;20097;-77
2023/09/05 12:45:18;;;;;;;1.40;1.30;;;;;;;;;;4992659;28;20050;-77
2023/09/05 12:47:51;;;;;;;2.53;1.40;;;;;;;;;;4992416;28;20053;-77
2023/09/05 12:50:17;;;;;;;1.23;1.13;;;;;;;;;;4977299;28;20382;-77
2023/09/05 12:52:43;;;;;;;1.58;1.20;;;;;;;;;;4976130;28;20026;-77
2023/09/05 12:55:13;;;;;;;2.05;1.30;;;;;;;;;;4992413;28;20026;-77
2023/09/05 12:57:39;;;;;;;1.88;1.40;;;;;;;;;;4992545;28;20045;-77
2023/09/05 13:00:06;;;;;;;1.55;1.45;;;;;;;;;;4992688;28;20470;-77
2023/09/05 13:02:31;;;;;;;3.67;1.60;;;;;;;;;;4960291;28;20037;-77
2023/09/05 13:04:57;;;;;;;1.95;1.27;;;;;;;;;;4993495;28;20031;-77
2023/09/05 13:07:23;;;;;;;2.50;1.42;;;;;;;;;;4993627;28;20030;-77
2023/09/05 13:09:48;;;;;;;1.90;1.20;;;;;;;;;;4992350;28;20026;-77
2023/09/05 13:12:14;;;;;;;1.60;1.30;;;;;;;;;;4992347;28;20041;-77
2023/09/05 13:14:42;;;;;;;1.42;1.30;;;;;;;;;;4979932;28;20061;-77
2023/09/05 13:17:08;;;;;;;1.35;1.20;;;;;;;;;;4995832;28;20034;-77
2023/09/05 13:19:33;;;;;;;1.30;1.20;;;;;;;;;;4995702;28;20084;-77
2023/09/05 13:21:59;;;;;;;1.40;1.30;;;;;;;;;;4979951;28;20053;-77
2023/09/05 13:24:25;;;;;;;1.45;1.33;;;;;;;;;;4995589;28;20054;-77
2023/09/05 13:26:50;;;;;;;1.65;1.10;;;;;;;;;;4997257;28;20022;-77
2023/09/05 13:29:15;;;;;;;1.50;1.40;;;;;;;;;;4995623;28;20556;-77
2023/09/05 13:31:41;;;;;;;1.38;1.27;;;;;;;;;;4979625;28;20034;-78
2023/09/05 13:34:06;;;;;;;1.52;1.40;;;;;;;;;;4995464;28;20054;-77
2023/09/05 13:36:31;;;;;;;1.95;1.35;;;;;;;;;;4995466;28;20037;-77
2023/09/05 13:38:57;;;;;;;1.20;1.10;;;;;;;;;;4995522;28;20042;-77
2023/09/05 13:41:22;;;;;;;1.40;1.30;;;;;;;;;;4996581;28;20041;-77
2023/09/05 13:43:48;;;;;;;1.42;1.30;;;;;;;;;;4995548;28;20366;-77
2023/09/05 13:46:13;;;;;;;1.90;1.38;;;;;;;;;;4996713;28;20117;-77
2023/09/05 13:48:38;;;;;;;1.77;1.20;;;;;;;;;;4996813;28;20080;-78
2023/09/05 13:51:04;;;;;;;1.20;1.10;;;;;;;;;;4995655;28;20438;-77
2023/09/05 13:53:29;;;;;;;1.73;1.25;;;;;;;;;;4997607;28;20067;-77
2023/09/05 13:55:55;;;;;;;1.35;1.25;;;;;;;;;;4978927;28;20056;-77
2023/09/05 13:58:21;;;;;;;1.38;1.27;;;;;;;;;;4995141;28;20535;-77
2023/09/05 14:00:47;;;;;;;1.40;1.20;;;;;;;;;;4996350;28;20042;-77
2023/09/05 14:03:12;;;;;;;1.50;1.40;;;;;;;;;;4994997;28;20026;-77
2023/09/05 14:05:37;;;;;;;1.40;1.30;;;;;;;;;;4995174;28;20041;-77
2023/09/05 14:08:03;;;;;;;2.22;1.27;;;;;;;;;;4978622;28;20065;-77
2023/09/05 14:10:29;;;;;;;1.83;1.35;;;;;;;;;;4995721;28;20030;-77
2023/09/05 14:12:54;;;;;;;1.20;1.10;;;;;;;;;;4995465;28;20540;-77
2023/09/05 14:15:21;;;;;;;2.35;1.30;;;;;;;;;;4996943;28;20042;-77
2023/09/05 14:17:46;;;;;;;2.70;1.20;;;;;;;;;;4978491;28;20093;-77
2023/09/05 14:20:12;;;;;;;1.70;1.20;;;;;;;;;;4995752;28;20038;-78
2023/09/05 14:22:37;;;;;;;1.63;1.20;;;;;;;;;;4978166;28;20038;-78
2023/09/05 14:25:03;;;;;;;2.45;1.20;;;;;;;;;;4995158;28;20043;-78
2023/09/05 14:27:28;;;;;;;1.20;1.10;;;;;;;;;;4994626;28;20034;-78
2023/09/05 14:29:53;;;;;;;1.50;1.30;;;;;;;;;;4994936;28;20077;-78
2023/09/05 14:32:19;;;;;;;1.48;1.10;;;;;;;;;;4995791;28;20034;-78
2023/09/05 14:34:44;;;;;;;2.95;1.10;;;;;;;;;;4995968;28;20036;-78
2023/09/05 14:37:10;;;;;;;1.13;1.10;;;;;;;;;;4995980;28;20031;-78
2023/09/05 14:39:35;;;;;;;1.15;1.05;;;;;;;;;;4995872;28;20129;-78